sensor_id;sensor_type;location;lat;lon;timestamp;P1;durP1;ratioP1;P2;durP2;ratioP2
3755;SDS011;1893;52.526;13.360;2023-04-01T00:01:09;2.80;;;1.87;;
3755;SDS011;1893;52.526;13.360;2023-04-01T00:03:38;5.90;;;2.40;;
3755;SDS011;1893;52.526;13.360;2023-04-01T00:06:04;2.60;;;2.30;;
3755;SDS011;1893;52.526;13.360;2023-04-01T00:08:30;2.80;;;2.17;;
3755;SDS011;1893;52.526;13.360;2023-04-01T00:10:56;4.90;;;1.87;;
3755;SDS011;1893;52.526;13.360;2023-04-01T00:13:23;2.70;;;2.13;;
3755;SDS011;1893;52.526;13.360;2023-04-01T00:15:50;4.33;;;2.20;;
3755;SDS011;1893;52.526;13.360;2023-04-01T00:18:16;12.23;;;8.17;;
3755;SDS011;1893;52.526;13.360;2023-04-01T00:20:45;11.70;;;6.30;;
3755;SDS011;1893;52.526;13.360;2023-04-01T00:23:13;3.30;;;2.30;;
3755;SDS011;1893;52.526;13.360;2023-04-01T00:25:39;5.23;;;2.63;;
3755;SDS011;1893;52.526;13.360;2023-04-01T00:28:05;3.87;;;1.87;;
3755;SDS011;1893;52.526;13.360;2023-04-01T00:30:31;3.47;;;2.00;;
3755;SDS011;1893;52.526;13.360;2023-04-01T00:32:56;2.50;;;1.60;;
3755;SDS011;1893;52.526;13.360;2023-04-01T00:35:22;2.90;;;2.47;;
3755;SDS011;1893;52.526;13.360;2023-04-01T00:37:48;3.97;;;2.20;;
3755;SDS011;1893;52.526;13.360;2023-04-01T00:42:52;3.07;;;1.93;;
3755;SDS011;1893;52.526;13.360;2023-04-01T00:45:28;2.67;;;2.07;;
3755;SDS011;1893;52.526;13.360;2023-04-01T00:48:07;2.10;;;2.00;;
3755;SDS011;1893;52.526;13.360;2023-04-01T00:50:36;2.43;;;1.83;;
3755;SDS011;1893;52.526;13.360;2023-04-01T00:53:05;4.33;;;1.70;;
3755;SDS011;1893;52.526;13.360;2023-04-01T00:55:34;2.50;;;2.30;;
3755;SDS011;1893;52.526;13.360;2023-04-01T00:58:04;4.73;;;1.97;;
3755;SDS011;1893;52.526;13.360;2023-04-01T01:00:33;3.47;;;3.17;;
3755;SDS011;1893;52.526;13.360;2023-04-01T01:03:00;7.03;;;3.00;;
3755;SDS011;1893;52.526;13.360;2023-04-01T01:05:35;3.10;;;2.57;;
3755;SDS011;1893;52.526;13.360;2023-04-01T01:08:45;3.90;;;2.50;;
3755;SDS011;1893;52.526;13.360;2023-04-01T01:11:19;4.57;;;2.90;;
3755;SDS011;1893;52.526;13.360;2023-04-01T01:14:01;3.03;;;2.00;;
3755;SDS011;1893;52.526;13.360;2023-04-01T01:16:36;5.67;;;2.93;;
3755;SDS011;1893;52.526;13.360;2023-04-01T01:27:11;2.10;;;1.90;;
3755;SDS011;1893;52.526;13.360;2023-04-01T01:35:31;9.70;;;2.37;;
3755;SDS011;1893;52.526;13.360;2023-04-01T01:38:03;5.20;;;2.57;;
3755;SDS011;1893;52.526;13.360;2023-04-01T01:40:35;3.90;;;2.30;;
3755;SDS011;1893;52.526;13.360;2023-04-01T01:43:05;4.10;;;2.50;;
3755;SDS011;1893;52.526;13.360;2023-04-01T01:45:34;2.50;;;1.77;;
3755;SDS011;1893;52.526;13.360;2023-04-01T01:48:04;3.30;;;2.10;;
3755;SDS011;1893;52.526;13.360;2023-04-01T01:50:31;6.33;;;2.60;;
3755;SDS011;1893;52.526;13.360;2023-04-01T01:53:05;7.47;;;1.97;;
3755;SDS011;1893;52.526;13.360;2023-04-01T01:55:33;5.27;;;2.53;;
3755;SDS011;1893;52.526;13.360;2023-04-01T01:58:09;5.30;;;2.80;;
3755;SDS011;1893;52.526;13.360;2023-04-01T02:01:01;3.97;;;1.87;;
3755;SDS011;1893;52.526;13.360;2023-04-01T02:03:31;3.13;;;1.77;;
3755;SDS011;1893;52.526;13.360;2023-04-01T02:06:00;6.17;;;2.20;;
3755;SDS011;1893;52.526;13.360;2023-04-01T02:08:34;4.73;;;1.77;;
3755;SDS011;1893;52.526;13.360;2023-04-01T02:11:08;3.33;;;1.93;;
3755;SDS011;1893;52.526;13.360;2023-04-01T02:13:45;6.13;;;2.20;;
3755;SDS011;1893;52.526;13.360;2023-04-01T02:19:08;2.50;;;1.33;;
3755;SDS011;1893;52.526;13.360;2023-04-01T02:21:35;4.57;;;2.13;;
3755;SDS011;1893;52.526;13.360;2023-04-01T02:24:04;4.73;;;2.00;;
3755;SDS011;1893;52.526;13.360;2023-04-01T02:26:33;7.13;;;2.23;;
3755;SDS011;1893;52.526;13.360;2023-04-01T02:28:59;2.30;;;1.77;;
3755;SDS011;1893;52.526;13.360;2023-04-01T02:31:26;3.23;;;2.00;;
3755;SDS011;1893;52.526;13.360;2023-04-01T02:33:52;4.80;;;1.73;;
3755;SDS011;1893;52.526;13.360;2023-04-01T02:36:19;2.30;;;1.73;;
3755;SDS011;1893;52.526;13.360;2023-04-01T02:38:45;2.90;;;1.57;;
3755;SDS011;1893;52.526;13.360;2023-04-01T02:41:13;2.87;;;1.50;;
3755;SDS011;1893;52.526;13.360;2023-04-01T02:43:39;8.70;;;1.77;;
3755;SDS011;1893;52.526;13.360;2023-04-01T02:46:04;2.60;;;1.80;;
3755;SDS011;1893;52.526;13.360;2023-04-01T02:48:30;3.53;;;2.07;;
3755;SDS011;1893;52.526;13.360;2023-04-01T02:50:56;5.30;;;2.07;;
3755;SDS011;1893;52.526;13.360;2023-04-01T02:53:21;4.23;;;2.17;;
3755;SDS011;1893;52.526;13.360;2023-04-01T02:55:47;2.87;;;1.50;;
3755;SDS011;1893;52.526;13.360;2023-04-01T02:58:15;4.20;;;2.17;;
3755;SDS011;1893;52.526;13.360;2023-04-01T03:00:41;5.10;;;2.10;;
3755;SDS011;1893;52.526;13.360;2023-04-01T03:03:07;3.53;;;1.87;;
3755;SDS011;1893;52.526;13.360;2023-04-01T03:05:33;3.70;;;2.13;;
3755;SDS011;1893;52.526;13.360;2023-04-01T03:07:59;3.80;;;1.80;;
3755;SDS011;1893;52.526;13.360;2023-04-01T03:10:24;5.57;;;2.40;;
3755;SDS011;1893;52.526;13.360;2023-04-01T03:12:50;4.83;;;2.40;;
3755;SDS011;1893;52.526;13.360;2023-04-01T03:15:16;3.37;;;2.13;;
3755;SDS011;1893;52.526;13.360;2023-04-01T03:17:42;2.00;;;1.70;;
3755;SDS011;1893;52.526;13.360;2023-04-01T03:20:08;4.80;;;2.47;;
3755;SDS011;1893;52.526;13.360;2023-04-01T03:22:35;6.90;;;2.00;;
3755;SDS011;1893;52.526;13.360;2023-04-01T03:25:02;3.50;;;2.10;;
3755;SDS011;1893;52.526;13.360;2023-04-01T03:27:29;4.60;;;2.37;;
3755;SDS011;1893;52.526;13.360;2023-04-01T03:29:54;2.80;;;1.90;;
3755;SDS011;1893;52.526;13.360;2023-04-01T03:32:20;6.20;;;2.57;;
3755;SDS011;1893;52.526;13.360;2023-04-01T03:34:45;3.30;;;2.37;;
3755;SDS011;1893;52.526;13.360;2023-04-01T03:37:11;2.53;;;2.30;;
3755;SDS011;1893;52.526;13.360;2023-04-01T03:39:37;4.03;;;1.80;;
3755;SDS011;1893;52.526;13.360;2023-04-01T03:42:03;5.73;;;2.40;;
3755;SDS011;1893;52.526;13.360;2023-04-01T03:44:32;5.13;;;1.80;;
3755;SDS011;1893;52.526;13.360;2023-04-01T03:46:58;2.90;;;2.00;;
3755;SDS011;1893;52.526;13.360;2023-04-01T03:49:24;5.97;;;2.30;;
3755;SDS011;1893;52.526;13.360;2023-04-01T03:51:50;6.03;;;1.90;;
3755;SDS011;1893;52.526;13.360;2023-04-01T03:54:17;7.03;;;2.63;;
3755;SDS011;1893;52.526;13.360;2023-04-01T03:56:44;2.70;;;1.70;;
3755;SDS011;1893;52.526;13.360;2023-04-01T03:59:10;4.50;;;2.23;;
3755;SDS011;1893;52.526;13.360;2023-04-01T04:01:36;2.90;;;2.67;;
3755;SDS011;1893;52.526;13.360;2023-04-01T04:04:02;6.40;;;2.63;;
3755;SDS011;1893;52.526;13.360;2023-04-01T04:06:27;2.33;;;2.10;;
3755;SDS011;1893;52.526;13.360;2023-04-01T04:08:53;7.17;;;2.60;;
3755;SDS011;1893;52.526;13.360;2023-04-01T04:11:19;3.63;;;2.20;;
3755;SDS011;1893;52.526;13.360;2023-04-01T04:13:46;5.07;;;2.30;;
3755;SDS011;1893;52.526;13.360;2023-04-01T04:16:15;2.90;;;1.80;;
3755;SDS011;1893;52.526;13.360;2023-04-01T04:18:41;3.47;;;2.07;;
3755;SDS011;1893;52.526;13.360;2023-04-01T04:21:10;6.43;;;2.70;;
3755;SDS011;1893;52.526;13.360;2023-04-01T04:23:37;4.83;;;2.67;;
3755;SDS011;1893;52.526;13.360;2023-04-01T04:26:04;5.13;;;2.40;;
3755;SDS011;1893;52.526;13.360;2023-04-01T04:28:31;6.80;;;2.90;;
3755;SDS011;1893;52.526;13.360;2023-04-01T04:30:57;4.23;;;2.63;;
3755;SDS011;1893;52.526;13.360;2023-04-01T04:33:23;7.73;;;3.00;;
3755;SDS011;1893;52.526;13.360;2023-04-01T04:35:49;8.33;;;2.27;;
3755;SDS011;1893;52.526;13.360;2023-04-01T04:38:16;8.80;;;2.60;;
3755;SDS011;1893;52.526;13.360;2023-04-01T04:40:42;4.03;;;2.27;;
3755;SDS011;1893;52.526;13.360;2023-04-01T04:43:13;4.23;;;2.40;;
3755;SDS011;1893;52.526;13.360;2023-04-01T04:45:40;4.60;;;2.67;;
3755;SDS011;1893;52.526;13.360;2023-04-01T04:48:07;6.27;;;2.90;;
3755;SDS011;1893;52.526;13.360;2023-04-01T04:50:34;6.83;;;2.73;;
3755;SDS011;1893;52.526;13.360;2023-04-01T04:53:00;5.03;;;2.60;;
3755;SDS011;1893;52.526;13.360;2023-04-01T04:55:25;10.00;;;3.53;;
3755;SDS011;1893;52.526;13.360;2023-04-01T04:57:51;5.40;;;2.83;;
3755;SDS011;1893;52.526;13.360;2023-04-01T05:00:17;8.83;;;3.70;;
3755;SDS011;1893;52.526;13.360;2023-04-01T05:02:43;3.10;;;2.83;;
3755;SDS011;1893;52.526;13.360;2023-04-01T05:05:08;8.60;;;3.90;;
3755;SDS011;1893;52.526;13.360;2023-04-01T05:07:35;7.33;;;2.67;;
3755;SDS011;1893;52.526;13.360;2023-04-01T05:10:01;6.57;;;2.93;;
3755;SDS011;1893;52.526;13.360;2023-04-01T05:12:26;9.23;;;3.07;;
3755;SDS011;1893;52.526;13.360;2023-04-01T05:14:52;3.80;;;3.03;;
3755;SDS011;1893;52.526;13.360;2023-04-01T05:17:18;5.70;;;3.20;;
3755;SDS011;1893;52.526;13.360;2023-04-01T05:19:43;3.50;;;3.00;;
3755;SDS011;1893;52.526;13.360;2023-04-01T05:22:09;7.10;;;3.10;;
3755;SDS011;1893;52.526;13.360;2023-04-01T05:24:34;4.27;;;2.60;;
3755;SDS011;1893;52.526;13.360;2023-04-01T05:27:00;5.80;;;3.30;;
3755;SDS011;1893;52.526;13.360;2023-04-01T05:29:26;6.20;;;3.90;;
3755;SDS011;1893;52.526;13.360;2023-04-01T05:31:52;6.37;;;3.40;;
3755;SDS011;1893;52.526;13.360;2023-04-01T05:34:17;5.97;;;3.00;;
3755;SDS011;1893;52.526;13.360;2023-04-01T05:36:43;8.93;;;3.63;;
3755;SDS011;1893;52.526;13.360;2023-04-01T05:39:09;6.20;;;3.90;;
3755;SDS011;1893;52.526;13.360;2023-04-01T05:41:35;8.10;;;4.10;;
3755;SDS011;1893;52.526;13.360;2023-04-01T05:44:02;5.50;;;3.43;;
3755;SDS011;1893;52.526;13.360;2023-04-01T05:46:28;10.70;;;4.07;;
3755;SDS011;1893;52.526;13.360;2023-04-01T05:48:54;8.17;;;3.07;;
3755;SDS011;1893;52.526;13.360;2023-04-01T05:51:20;7.23;;;3.40;;
3755;SDS011;1893;52.526;13.360;2023-04-01T05:53:45;11.00;;;3.77;;
3755;SDS011;1893;52.526;13.360;2023-04-01T05:56:11;3.20;;;2.77;;
3755;SDS011;1893;52.526;13.360;2023-04-01T05:58:37;9.03;;;3.40;;
3755;SDS011;1893;52.526;13.360;2023-04-01T06:01:04;4.10;;;3.70;;
3755;SDS011;1893;52.526;13.360;2023-04-01T06:03:39;9.33;;;4.13;;
3755;SDS011;1893;52.526;13.360;2023-04-01T06:06:05;5.90;;;2.80;;
3755;SDS011;1893;52.526;13.360;2023-04-01T06:08:39;7.33;;;3.47;;
3755;SDS011;1893;52.526;13.360;2023-04-01T06:38:11;7.20;;;4.60;;
3755;SDS011;1893;52.526;13.360;2023-04-01T06:46:12;4.40;;;4.00;;
3755;SDS011;1893;52.526;13.360;2023-04-01T06:54:03;6.97;;;3.87;;
3755;SDS011;1893;52.526;13.360;2023-04-01T06:57:15;6.60;;;3.57;;
3755;SDS011;1893;52.526;13.360;2023-04-01T07:00:19;10.40;;;5.20;;
3755;SDS011;1893;52.526;13.360;2023-04-01T07:05:46;4.60;;;3.57;;
3755;SDS011;1893;52.526;13.360;2023-04-01T07:08:13;7.30;;;3.53;;
3755;SDS011;1893;52.526;13.360;2023-04-01T07:13:21;7.80;;;3.97;;
3755;SDS011;1893;52.526;13.360;2023-04-01T07:15:55;12.03;;;4.00;;
3755;SDS011;1893;52.526;13.360;2023-04-01T07:18:47;4.30;;;3.90;;
3755;SDS011;1893;52.526;13.360;2023-04-01T07:21:14;10.63;;;4.17;;
3755;SDS011;1893;52.526;13.360;2023-04-01T07:23:51;11.43;;;4.00;;
3755;SDS011;1893;52.526;13.360;2023-04-01T07:26:20;8.10;;;3.97;;
3755;SDS011;1893;52.526;13.360;2023-04-01T07:28:48;8.70;;;3.33;;
3755;SDS011;1893;52.526;13.360;2023-04-01T07:31:18;8.47;;;3.53;;
3755;SDS011;1893;52.526;13.360;2023-04-01T07:34:01;4.70;;;1.90;;
3755;SDS011;1893;52.526;13.360;2023-04-01T07:44:59;5.87;;;2.37;;
3755;SDS011;1893;52.526;13.360;2023-04-01T07:50:21;4.90;;;2.20;;
3755;SDS011;1893;52.526;13.360;2023-04-01T07:55:39;2.50;;;2.10;;
3755;SDS011;1893;52.526;13.360;2023-04-01T07:58:32;3.67;;;1.93;;
3755;SDS011;1893;52.526;13.360;2023-04-01T08:01:05;7.33;;;2.93;;
3755;SDS011;1893;52.526;13.360;2023-04-01T08:03:50;2.47;;;1.73;;
3755;SDS011;1893;52.526;13.360;2023-04-01T08:12:27;3.93;;;2.83;;
3755;SDS011;1893;52.526;13.360;2023-04-01T08:15:10;6.70;;;3.20;;
3755;SDS011;1893;52.526;13.360;2023-04-01T08:25:43;3.87;;;2.50;;
3755;SDS011;1893;52.526;13.360;2023-04-01T08:30:59;1.90;;;1.77;;
3755;SDS011;1893;52.526;13.360;2023-04-01T08:33:30;1.70;;;1.60;;
3755;SDS011;1893;52.526;13.360;2023-04-01T08:36:13;2.10;;;1.33;;
3755;SDS011;1893;52.526;13.360;2023-04-01T08:38:49;2.13;;;1.90;;
3755;SDS011;1893;52.526;13.360;2023-04-01T08:58:42;5.30;;;4.80;;
3755;SDS011;1893;52.526;13.360;2023-04-01T09:03:47;7.87;;;6.00;;
3755;SDS011;1893;52.526;13.360;2023-04-01T09:17:34;12.30;;;7.80;;
3755;SDS011;1893;52.526;13.360;2023-04-01T09:23:25;12.10;;;8.27;;
3755;SDS011;1893;52.526;13.360;2023-04-01T09:26:18;10.20;;;8.10;;
3755;SDS011;1893;52.526;13.360;2023-04-01T09:29:02;13.63;;;8.43;;
3755;SDS011;1893;52.526;13.360;2023-04-01T09:34:33;11.43;;;8.70;;
3755;SDS011;1893;52.526;13.360;2023-04-01T09:44:53;13.73;;;10.70;;
3755;SDS011;1893;52.526;13.360;2023-04-01T09:47:28;15.47;;;11.23;;
3755;SDS011;1893;52.526;13.360;2023-04-01T10:01:24;13.20;;;10.47;;
3755;SDS011;1893;52.526;13.360;2023-04-01T10:20:46;9.97;;;8.63;;
3755;SDS011;1893;52.526;13.360;2023-04-01T10:26:09;70.23;;;17.33;;
3755;SDS011;1893;52.526;13.360;2023-04-01T10:28:50;50.70;;;14.50;;
3755;SDS011;1893;52.526;13.360;2023-04-01T10:42:46;33.70;;;13.43;;
3755;SDS011;1893;52.526;13.360;2023-04-01T10:45:27;13.90;;;9.17;;
3755;SDS011;1893;52.526;13.360;2023-04-01T10:51:58;33.30;;;13.20;;
3755;SDS011;1893;52.526;13.360;2023-04-01T11:26:01;14.10;;;10.30;;
3755;SDS011;1893;52.526;13.360;2023-04-01T11:28:44;12.23;;;10.17;;
3755;SDS011;1893;52.526;13.360;2023-04-01T11:42:07;14.37;;;11.10;;
3755;SDS011;1893;52.526;13.360;2023-04-01T11:45:31;12.67;;;10.33;;
3755;SDS011;1893;52.526;13.360;2023-04-01T11:55:50;13.53;;;11.17;;
3755;SDS011;1893;52.526;13.360;2023-04-01T12:19:07;14.77;;;11.63;;
3755;SDS011;1893;52.526;13.360;2023-04-01T12:21:36;15.07;;;10.13;;
3755;SDS011;1893;52.526;13.360;2023-04-01T12:24:48;11.73;;;10.23;;
3755;SDS011;1893;52.526;13.360;2023-04-01T12:29:37;13.27;;;10.17;;
3755;SDS011;1893;52.526;13.360;2023-04-01T12:32:35;13.10;;;10.77;;
3755;SDS011;1893;52.526;13.360;2023-04-01T12:37:48;13.50;;;11.37;;
3755;SDS011;1893;52.526;13.360;2023-04-01T12:40:36;15.77;;;10.90;;
3755;SDS011;1893;52.526;13.360;2023-04-01T13:07:52;14.70;;;12.83;;
3755;SDS011;1893;52.526;13.360;2023-04-01T13:16:20;16.63;;;12.60;;
3755;SDS011;1893;52.526;13.360;2023-04-01T13:22:05;13.30;;;11.50;;
3755;SDS011;1893;52.526;13.360;2023-04-01T13:27:25;17.23;;;13.40;;
3755;SDS011;1893;52.526;13.360;2023-04-01T13:44:17;14.70;;;11.03;;
3755;SDS011;1893;52.526;13.360;2023-04-01T14:00:59;10.23;;;8.33;;
3755;SDS011;1893;52.526;13.360;2023-04-01T14:12:30;10.20;;;7.90;;
3755;SDS011;1893;52.526;13.360;2023-04-01T14:21:04;9.07;;;8.17;;
3755;SDS011;1893;52.526;13.360;2023-04-01T14:29:38;11.10;;;7.37;;
3755;SDS011;1893;52.526;13.360;2023-04-01T14:32:33;9.27;;;6.63;;
3755;SDS011;1893;52.526;13.360;2023-04-01T14:49:36;6.90;;;5.87;;
3755;SDS011;1893;52.526;13.360;2023-04-01T14:52:15;5.90;;;4.90;;
3755;SDS011;1893;52.526;13.360;2023-04-01T14:55:00;8.77;;;6.83;;
3755;SDS011;1893;52.526;13.360;2023-04-01T14:57:36;7.13;;;6.23;;
3755;SDS011;1893;52.526;13.360;2023-04-01T15:00:14;8.90;;;6.73;;
3755;SDS011;1893;52.526;13.360;2023-04-01T15:05:27;7.83;;;6.73;;
3755;SDS011;1893;52.526;13.360;2023-04-01T15:08:15;7.00;;;6.10;;
3755;SDS011;1893;52.526;13.360;2023-04-01T15:19:28;6.20;;;5.57;;
3755;SDS011;1893;52.526;13.360;2023-04-01T15:30:27;7.70;;;6.70;;
3755;SDS011;1893;52.526;13.360;2023-04-01T15:33:27;7.20;;;6.50;;
3755;SDS011;1893;52.526;13.360;2023-04-01T15:41:54;8.90;;;7.20;;
3755;SDS011;1893;52.526;13.360;2023-04-01T15:44:44;9.70;;;7.10;;
3755;SDS011;1893;52.526;13.360;2023-04-01T15:49:54;8.03;;;7.23;;
3755;SDS011;1893;52.526;13.360;2023-04-01T15:52:34;11.30;;;8.27;;
3755;SDS011;1893;52.526;13.360;2023-04-01T15:55:25;14.30;;;10.03;;
3755;SDS011;1893;52.526;13.360;2023-04-01T15:58:27;9.27;;;8.27;;
3755;SDS011;1893;52.526;13.360;2023-04-01T16:03:43;8.27;;;6.47;;
3755;SDS011;1893;52.526;13.360;2023-04-01T16:06:33;8.57;;;7.10;;
3755;SDS011;1893;52.526;13.360;2023-04-01T16:22:35;7.00;;;5.87;;
3755;SDS011;1893;52.526;13.360;2023-04-01T16:25:17;5.50;;;5.00;;
3755;SDS011;1893;52.526;13.360;2023-04-01T16:30:39;6.67;;;5.70;;
3755;SDS011;1893;52.526;13.360;2023-04-01T16:33:19;8.33;;;6.20;;
3755;SDS011;1893;52.526;13.360;2023-04-01T16:35:58;6.17;;;5.53;;
3755;SDS011;1893;52.526;13.360;2023-04-01T16:41:16;5.27;;;4.77;;
3755;SDS011;1893;52.526;13.360;2023-04-01T16:46:26;5.87;;;5.13;;
3755;SDS011;1893;52.526;13.360;2023-04-01T16:49:00;6.87;;;4.60;;
3755;SDS011;1893;52.526;13.360;2023-04-01T16:51:41;5.13;;;4.60;;
3755;SDS011;1893;52.526;13.360;2023-04-01T16:54:15;4.73;;;4.27;;
3755;SDS011;1893;52.526;13.360;2023-04-01T16:59:38;4.70;;;4.30;;
3755;SDS011;1893;52.526;13.360;2023-04-01T17:02:10;7.13;;;4.60;;
3755;SDS011;1893;52.526;13.360;2023-04-01T17:15:39;6.10;;;4.67;;
3755;SDS011;1893;52.526;13.360;2023-04-01T17:18:25;6.53;;;5.30;;
3755;SDS011;1893;52.526;13.360;2023-04-01T17:21:01;6.97;;;5.90;;
3755;SDS011;1893;52.526;13.360;2023-04-01T17:23:49;7.03;;;6.30;;
3755;SDS011;1893;52.526;13.360;2023-04-01T17:31:46;6.07;;;5.23;;
3755;SDS011;1893;52.526;13.360;2023-04-01T17:36:52;7.97;;;5.93;;
3755;SDS011;1893;52.526;13.360;2023-04-01T17:42:38;6.37;;;5.10;;
3755;SDS011;1893;52.526;13.360;2023-04-01T17:45:28;8.23;;;5.10;;
3755;SDS011;1893;52.526;13.360;2023-04-01T17:56:40;7.60;;;5.30;;
3755;SDS011;1893;52.526;13.360;2023-04-01T18:12:43;7.17;;;5.00;;
3755;SDS011;1893;52.526;13.360;2023-04-01T18:15:21;5.57;;;4.97;;
3755;SDS011;1893;52.526;13.360;2023-04-01T18:18:10;6.17;;;5.10;;
3755;SDS011;1893;52.526;13.360;2023-04-01T18:25:46;9.03;;;5.93;;
3755;SDS011;1893;52.526;13.360;2023-04-01T18:36:33;9.00;;;6.27;;
3755;SDS011;1893;52.526;13.360;2023-04-01T18:39:23;9.10;;;6.07;;
3755;SDS011;1893;52.526;13.360;2023-04-01T18:42:15;8.03;;;6.40;;
3755;SDS011;1893;52.526;13.360;2023-04-01T18:44:52;6.67;;;5.63;;
3755;SDS011;1893;52.526;13.360;2023-04-01T18:47:38;9.60;;;6.43;;
3755;SDS011;1893;52.526;13.360;2023-04-01T18:53:10;7.40;;;6.10;;
3755;SDS011;1893;52.526;13.360;2023-04-01T18:55:40;8.80;;;6.80;;
3755;SDS011;1893;52.526;13.360;2023-04-01T18:58:18;8.60;;;6.53;;
3755;SDS011;1893;52.526;13.360;2023-04-01T19:01:11;8.80;;;6.83;;
3755;SDS011;1893;52.526;13.360;2023-04-01T19:03:43;7.77;;;7.00;;
3755;SDS011;1893;52.526;13.360;2023-04-01T19:08:50;12.33;;;7.80;;
3755;SDS011;1893;52.526;13.360;2023-04-01T19:11:26;21.10;;;8.57;;
3755;SDS011;1893;52.526;13.360;2023-04-01T19:30:14;12.93;;;8.17;;
3755;SDS011;1893;52.526;13.360;2023-04-01T19:36:20;13.63;;;7.73;;
3755;SDS011;1893;52.526;13.360;2023-04-01T19:43:56;14.40;;;7.50;;
3755;SDS011;1893;52.526;13.360;2023-04-01T19:46:34;15.90;;;7.83;;
3755;SDS011;1893;52.526;13.360;2023-04-01T19:52:13;11.90;;;7.87;;
3755;SDS011;1893;52.526;13.360;2023-04-01T20:00:12;13.97;;;9.30;;
3755;SDS011;1893;52.526;13.360;2023-04-01T20:05:33;13.83;;;9.37;;
3755;SDS011;1893;52.526;13.360;2023-04-01T20:08:51;17.17;;;9.40;;
3755;SDS011;1893;52.526;13.360;2023-04-01T20:11:21;17.43;;;9.50;;
3755;SDS011;1893;52.526;13.360;2023-04-01T20:19:41;20.27;;;10.43;;
3755;SDS011;1893;52.526;13.360;2023-04-01T20:24:47;12.77;;;8.17;;
3755;SDS011;1893;52.526;13.360;2023-04-01T20:29:47;12.37;;;8.50;;
3755;SDS011;1893;52.526;13.360;2023-04-01T20:41:27;15.80;;;8.83;;
3755;SDS011;1893;52.526;13.360;2023-04-01T20:44:12;18.03;;;9.77;;
3755;SDS011;1893;52.526;13.360;2023-04-01T20:46:45;15.27;;;8.80;;
3755;SDS011;1893;52.526;13.360;2023-04-01T20:49:30;13.13;;;8.60;;
3755;SDS011;1893;52.526;13.360;2023-04-01T20:52:49;13.60;;;9.50;;
3755;SDS011;1893;52.526;13.360;2023-04-01T20:57:33;16.60;;;9.90;;
3755;SDS011;1893;52.526;13.360;2023-04-01T21:02:53;15.37;;;9.80;;
3755;SDS011;1893;52.526;13.360;2023-04-01T21:08:24;16.20;;;10.90;;
3755;SDS011;1893;52.526;13.360;2023-04-01T21:17:08;18.93;;;10.17;;
3755;SDS011;1893;52.526;13.360;2023-04-01T21:19:44;16.30;;;10.50;;
3755;SDS011;1893;52.526;13.360;2023-04-01T21:22:27;18.80;;;9.40;;
3755;SDS011;1893;52.526;13.360;2023-04-01T21:30:56;15.17;;;8.50;;
3755;SDS011;1893;52.526;13.360;2023-04-01T21:33:42;14.03;;;8.60;;
3755;SDS011;1893;52.526;13.360;2023-04-01T21:41:47;12.10;;;9.20;;
3755;SDS011;1893;52.526;13.360;2023-04-01T21:47:31;13.70;;;8.90;;
3755;SDS011;1893;52.526;13.360;2023-04-01T22:07:21;11.23;;;7.40;;
3755;SDS011;1893;52.526;13.360;2023-04-01T22:13:00;7.60;;;6.50;;
3755;SDS011;1893;52.526;13.360;2023-04-01T22:16:06;9.80;;;6.63;;
3755;SDS011;1893;52.526;13.360;2023-04-01T22:18:50;8.93;;;6.93;;
3755;SDS011;1893;52.526;13.360;2023-04-01T22:21:32;13.13;;;6.00;;
3755;SDS011;1893;52.526;13.360;2023-04-01T22:27:06;13.87;;;6.50;;
3755;SDS011;1893;52.526;13.360;2023-04-01T22:32:22;6.77;;;5.13;;
3755;SDS011;1893;52.526;13.360;2023-04-01T22:34:57;5.17;;;4.67;;
3755;SDS011;1893;52.526;13.360;2023-04-01T22:38:02;10.10;;;5.43;;
3755;SDS011;1893;52.526;13.360;2023-04-01T22:43:40;9.73;;;4.90;;
3755;SDS011;1893;52.526;13.360;2023-04-01T22:46:53;11.63;;;6.27;;
3755;SDS011;1893;52.526;13.360;2023-04-01T22:49:25;7.90;;;4.60;;
3755;SDS011;1893;52.526;13.360;2023-04-01T22:52:03;5.87;;;4.53;;
3755;SDS011;1893;52.526;13.360;2023-04-01T22:54:39;8.50;;;4.60;;
3755;SDS011;1893;52.526;13.360;2023-04-01T22:59:56;7.40;;;5.93;;
3755;SDS011;1893;52.526;13.360;2023-04-01T23:02:33;5.60;;;4.87;;
3755;SDS011;1893;52.526;13.360;2023-04-01T23:05:20;6.83;;;5.90;;
3755;SDS011;1893;52.526;13.360;2023-04-01T23:10:42;11.23;;;7.07;;
3755;SDS011;1893;52.526;13.360;2023-04-01T23:13:22;7.90;;;6.00;;
3755;SDS011;1893;52.526;13.360;2023-04-01T23:16:05;7.13;;;4.90;;
3755;SDS011;1893;52.526;13.360;2023-04-01T23:18:37;6.23;;;4.97;;
3755;SDS011;1893;52.526;13.360;2023-04-01T23:26:56;5.30;;;3.93;;
3755;SDS011;1893;52.526;13.360;2023-04-01T23:29:25;9.27;;;4.70;;
3755;SDS011;1893;52.526;13.360;2023-04-01T23:31:58;5.83;;;3.67;;
3755;SDS011;1893;52.526;13.360;2023-04-01T23:34:38;6.47;;;4.93;;
3755;SDS011;1893;52.526;13.360;2023-04-01T23:37:04;7.77;;;4.07;;
3755;SDS011;1893;52.526;13.360;2023-04-01T23:39:37;4.53;;;4.10;;
3755;SDS011;1893;52.526;13.360;2023-04-01T23:42:06;4.73;;;4.23;;
3755;SDS011;1893;52.526;13.360;2023-04-01T23:44:37;5.70;;;4.97;;
3755;SDS011;1893;52.526;13.360;2023-04-01T23:47:04;5.80;;;4.67;;
3755;SDS011;1893;52.526;13.360;2023-04-01T23:49:36;5.93;;;5.20;;
3755;SDS011;1893;52.526;13.360;2023-04-01T23:52:20;7.57;;;4.87;;
3755;SDS011;1893;52.526;13.360;2023-04-01T23:54:56;10.27;;;5.73;;
3755;SDS011;1893;52.526;13.360;2023-04-01T23:57:29;9.60;;;5.67;;
